Time;durP1;ratioP1;P1;durP2;ratioP2;P2;SDS_P1;SDS_P2;PMS_P1;PMS_P2;Temp;Humidity;BMP_temperature;BMP_pressure;BME280_temperature;BME280_humidity;BME280_pressure;Samples;Min_cycle;Max_cycle;Signal;HPM_P1;HPM_P2
2022/01/13 00:02:00;;;;;;;250.37;57.67;;;5.00;99.90;;;;;;6188014;23;20414;-79
2022/01/13 00:04:29;;;;;;;229.90;62.30;;;5.00;99.90;;;;;;6235440;23;20449;-79
2022/01/13 00:07:00;;;;;;;168.67;54.47;;;5.00;99.90;;;;;;6231292;23;20504;-80
2022/01/13 00:09:30;;;;;;;276.33;55.23;;;5.00;99.90;;;;;;6251954;23;20939;-79
2022/01/13 00:12:01;;;;;;;183.07;49.33;;;5.00;99.90;;;;;;6252382;22;20420;-79
2022/01/13 00:14:52;;;;;;;186.93;52.13;;;5.00;99.90;;;;;;6252870;22;20455;-78
2022/01/13 00:17:33;;;;;;;260.80;54.93;;;5.00;99.90;;;;;;6262373;23;20405;-79
2022/01/13 00:25:57;;;;;;;219.83;55.23;;;5.00;99.90;;;;;;6134576;23;20444;-79
2022/01/13 00:28:26;;;;;;;259.13;60.27;;;5.00;99.90;;;;;;6230154;23;20455;-78
2022/01/13 00:31:03;;;;;;;164.67;51.70;;;5.00;99.90;;;;;;6227851;23;20475;-79
2022/01/13 00:33:34;;;;;;;269.77;54.13;;;5.10;99.90;;;;;;6254263;22;20443;-79
2022/01/13 00:36:03;;;;;;;250.37;53.53;;;5.10;99.90;;;;;;6227520;23;20416;-79
2022/01/13 00:38:31;;;;;;;195.33;52.07;;;5.10;99.90;;;;;;6264515;23;20501;-79
2022/01/13 00:41:00;;;;;;;234.27;61.60;;;5.10;99.90;;;;;;6227758;23;20419;-79
2022/01/13 00:43:31;;;;;;;195.70;56.63;;;5.10;99.90;;;;;;6228385;23;20474;-79
2022/01/13 00:46:21;;;;;;;310.30;62.27;;;5.10;99.90;;;;;;6265012;23;20513;-79
2022/01/13 00:48:51;;;;;;;154.07;53.23;;;5.10;99.90;;;;;;6264086;23;20431;-78
2022/01/13 00:51:20;;;;;;;189.50;51.03;;;5.10;99.90;;;;;;6254342;23;20464;-79
2022/01/13 00:53:49;;;;;;;264.37;65.77;;;5.10;99.90;;;;;;6227327;22;20417;-79
2022/01/13 00:56:18;;;;;;;258.40;63.17;;;5.10;99.90;;;;;;6253061;22;20814;-80
2022/01/13 00:58:48;;;;;;;277.40;67.90;;;5.10;99.90;;;;;;6254944;23;20436;-79
2022/01/13 01:01:39;;;;;;;242.97;60.63;;;5.10;99.90;;;;;;6252487;23;20405;-78
2022/01/13 01:04:08;;;;;;;174.67;55.60;;;5.20;99.90;;;;;;6226799;23;20791;-79
2022/01/13 01:06:37;;;;;;;299.80;65.37;;;5.10;99.90;;;;;;6265701;23;20455;-79
2022/01/13 01:09:12;;;;;;;244.80;57.83;;;5.10;99.90;;;;;;6265529;23;20398;-79
2022/01/13 01:11:42;;;;;;;273.70;57.73;;;5.10;99.90;;;;;;6227300;23;20421;-80
2022/01/13 01:14:15;;;;;;;192.93;53.33;;;5.20;99.90;;;;;;6227580;23;20472;-78
2022/01/13 01:16:52;;;;;;;300.37;65.37;;;5.10;99.90;;;;;;6228660;23;20421;-79
2022/01/13 01:19:28;;;;;;;224.47;59.83;;;5.10;99.90;;;;;;6227916;23;20421;-79
2022/01/13 01:38:55;;;;;;;172.63;62.47;;;5.10;99.90;;;;;;5867739;24;20435;-79
2022/01/13 01:41:36;;;;;;;260.47;57.90;;;5.10;99.90;;;;;;6173827;23;20417;-79
2022/01/13 01:44:13;;;;;;;239.37;65.60;;;5.20;99.90;;;;;;6264616;22;20504;-79
2022/01/13 01:46:46;;;;;;;289.50;69.07;;;5.10;99.90;;;;;;6255142;23;20516;-79
2022/01/13 01:49:17;;;;;;;236.70;58.60;;;5.10;99.90;;;;;;6227663;23;20869;-79
2022/01/13 01:51:48;;;;;;;219.27;63.60;;;5.10;99.90;;;;;;6227668;23;20751;-80
2022/01/13 01:54:18;;;;;;;299.60;70.87;;;5.10;99.90;;;;;;6227106;23;20437;-79
2022/01/13 01:56:48;;;;;;;303.23;65.23;;;5.20;99.90;;;;;;6253981;22;20417;-80
2022/01/13 01:59:19;;;;;;;347.37;68.97;;;5.10;99.90;;;;;;6253818;23;20473;-79
2022/01/13 02:01:49;;;;;;;228.47;62.77;;;5.10;99.90;;;;;;6227898;23;20437;-79
2022/01/13 02:04:19;;;;;;;359.67;70.03;;;5.10;99.90;;;;;;6226840;23;20964;-79
2022/01/13 02:06:47;;;;;;;364.63;89.47;;;5.10;99.90;;;;;;6252310;22;20441;-79
2022/01/13 02:09:19;;;;;;;234.93;66.37;;;5.10;99.90;;;;;;6252123;22;20418;-80
2022/01/13 02:11:52;;;;;;;327.13;70.97;;;5.10;99.90;;;;;;6264530;23;20448;-79
2022/01/13 02:14:34;;;;;;;370.77;74.70;;;5.10;99.90;;;;;;6227600;23;20441;-79
2022/01/13 02:17:07;;;;;;;267.47;65.53;;;5.10;99.90;;;;;;6228633;23;20417;-79
2022/01/13 02:19:39;;;;;;;264.53;73.47;;;5.10;99.90;;;;;;6228811;23;20448;-79
2022/01/13 02:22:22;;;;;;;247.57;70.17;;;5.10;99.90;;;;;;6228826;23;20410;-79
2022/01/13 02:24:50;;;;;;;293.40;78.87;;;5.10;99.90;;;;;;6227582;23;20433;-79
2022/01/13 02:27:19;;;;;;;289.13;68.83;;;5.10;99.90;;;;;;6253434;22;20472;-79
2022/01/13 02:29:50;;;;;;;326.07;77.57;;;5.10;99.90;;;;;;6265157;23;20429;-79
2022/01/13 02:32:19;;;;;;;278.43;66.43;;;5.10;99.90;;;;;;6226285;23;20440;-79
2022/01/13 02:34:48;;;;;;;261.97;60.27;;;5.10;99.90;;;;;;6226096;23;20461;-79
2022/01/13 02:37:20;;;;;;;276.00;70.97;;;5.10;99.90;;;;;;6227345;23;20405;-79
2022/01/13 02:39:52;;;;;;;367.50;80.33;;;5.10;99.90;;;;;;6228102;23;20444;-79
2022/01/13 02:42:24;;;;;;;194.80;64.83;;;5.10;99.90;;;;;;6228042;23;20472;-79
2022/01/13 02:55:09;;;;;;;181.73;60.60;;;5.10;99.90;;;;;;5978008;23;20472;-79
2022/01/13 02:57:39;;;;;;;204.63;58.33;;;5.10;99.90;;;;;;6148350;23;20419;-79
2022/01/13 03:00:13;;;;;;;304.97;66.90;;;5.10;99.90;;;;;;6165428;23;20518;-79
2022/01/13 03:02:45;;;;;;;150.43;49.73;;;5.10;99.90;;;;;;6164601;23;20415;-78
2022/01/13 03:05:15;;;;;;;259.77;61.17;;;5.10;99.90;;;;;;6189827;23;20444;-79
2022/01/13 03:07:43;;;;;;;386.20;73.80;;;5.10;99.90;;;;;;6262941;23;20421;-79
2022/01/13 03:10:16;;;;;;;327.30;67.67;;;5.10;99.90;;;;;;6253043;23;20436;-79
2022/01/13 03:12:46;;;;;;;262.77;61.13;;;5.10;99.90;;;;;;6225086;23;20406;-79
2022/01/13 03:15:16;;;;;;;266.60;61.83;;;5.10;99.90;;;;;;6250658;22;20432;-79
2022/01/13 03:17:44;;;;;;;198.17;60.43;;;5.10;99.90;;;;;;6251997;23;20719;-78
2022/01/13 03:20:28;;;;;;;262.37;65.53;;;5.10;99.90;;;;;;6226631;23;20441;-79
2022/01/13 03:22:57;;;;;;;214.70;58.13;;;5.10;99.90;;;;;;6226314;23;20417;-79
2022/01/13 03:25:35;;;;;;;325.93;70.03;;;5.10;99.90;;;;;;6226978;23;20528;-79
2022/01/13 03:31:16;;;;;;;200.90;65.10;;;5.10;99.90;;;;;;6221590;23;20414;-79
2022/01/13 03:33:45;;;;;;;255.87;69.87;;;5.10;99.90;;;;;;6256134;22;20402;-79
2022/01/13 03:36:14;;;;;;;284.83;62.37;;;5.10;99.90;;;;;;6225716;23;20410;-80
2022/01/13 03:39:08;;;;;;;205.73;61.60;;;5.10;99.90;;;;;;6264127;23;20809;-79
2022/01/13 03:41:42;;;;;;;313.83;69.87;;;5.10;99.90;;;;;;6247710;23;20418;-79
2022/01/13 03:44:27;;;;;;;272.73;69.07;;;5.10;99.90;;;;;;6251160;23;20444;-79
2022/01/13 03:47:01;;;;;;;294.13;68.83;;;5.10;99.90;;;;;;6263435;23;20501;-79
2022/01/13 03:49:29;;;;;;;289.47;66.00;;;5.10;99.90;;;;;;6226680;23;20416;-80
2022/01/13 03:52:55;;;;;;;242.13;70.63;;;5.10;99.90;;;;;;6226100;23;20484;-79
2022/01/13 03:56:01;;;;;;;290.43;66.03;;;5.10;99.90;;;;;;6225710;23;20520;-79
2022/01/13 03:59:14;;;;;;;244.60;61.63;;;5.10;99.90;;;;;;6251137;23;20416;-79
2022/01/13 04:02:01;;;;;;;286.33;60.97;;;5.00;99.90;;;;;;6224201;23;20440;-79
2022/01/13 04:04:31;;;;;;;198.30;59.53;;;5.00;99.90;;;;;;6227297;23;20476;-79
2022/01/13 04:07:18;;;;;;;179.13;52.37;;;5.00;99.90;;;;;;6227521;23;20433;-79
2022/01/13 04:10:28;;;;;;;251.30;60.37;;;5.10;99.90;;;;;;6227894;23;20408;-79
2022/01/13 04:12:58;;;;;;;212.53;61.03;;;5.10;99.90;;;;;;6254293;23;20413;-78
2022/01/13 04:15:35;;;;;;;184.80;48.93;;;5.10;99.90;;;;;;6228086;23;20924;-79
2022/01/13 04:18:05;;;;;;;261.00;65.50;;;5.10;99.90;;;;;;6254434;23;20401;-79
2022/01/13 04:20:35;;;;;;;251.97;60.77;;;5.10;99.90;;;;;;6253708;22;20426;-79
2022/01/13 04:23:03;;;;;;;247.00;55.90;;;5.10;99.90;;;;;;6253477;23;20511;-79
2022/01/13 04:25:34;;;;;;;249.60;59.03;;;5.10;99.90;;;;;;6253383;23;20469;-79
2022/01/13 04:28:03;;;;;;;171.50;53.00;;;5.10;99.90;;;;;;6228861;23;20437;-79
2022/01/13 04:30:52;;;;;;;230.20;61.13;;;5.10;99.90;;;;;;6252915;23;20414;-79
2022/01/13 04:33:21;;;;;;;188.90;56.13;;;5.10;99.90;;;;;;6255516;23;20408;-79
2022/01/13 04:35:52;;;;;;;309.77;76.93;;;5.10;99.90;;;;;;6227288;23;20428;-79
2022/01/13 04:38:22;;;;;;;245.70;58.50;;;5.10;99.90;;;;;;6226399;23;20417;-78
2022/01/13 04:40:57;;;;;;;221.17;55.13;;;5.10;99.90;;;;;;6227873;23;20438;-78
2022/01/13 04:43:33;;;;;;;256.73;59.03;;;5.10;99.90;;;;;;6228347;23;20409;-79
2022/01/13 04:46:02;;;;;;;313.07;60.00;;;5.10;99.90;;;;;;6252888;23;20402;-79
2022/01/13 04:48:34;;;;;;;313.43;63.13;;;5.20;99.90;;;;;;6228213;23;20746;-79
2022/01/13 04:51:02;;;;;;;251.87;60.97;;;5.10;99.90;;;;;;6227259;23;20479;-79
2022/01/13 04:53:41;;;;;;;264.17;54.80;;;5.10;99.90;;;;;;6227695;23;20418;-79
2022/01/13 04:59:50;;;;;;;308.27;85.73;;;5.10;99.90;;;;;;6225447;23;20424;-79
2022/01/13 05:02:21;;;;;;;199.07;49.93;;;5.10;99.90;;;;;;6227076;23;20417;-79
2022/01/13 05:05:04;;;;;;;340.83;67.83;;;5.10;99.90;;;;;;6227374;23;20471;-78
2022/01/13 05:07:33;;;;;;;303.63;57.83;;;5.10;99.90;;;;;;6226813;23;20449;-79
2022/01/13 05:10:01;;;;;;;264.30;60.67;;;5.10;99.90;;;;;;6227338;23;20414;-79
2022/01/13 05:12:37;;;;;;;292.77;60.03;;;5.10;99.90;;;;;;6253303;23;20865;-79
2022/01/13 05:15:10;;;;;;;246.47;58.97;;;5.10;99.90;;;;;;6226869;23;20524;-79
2022/01/13 05:20:43;;;;;;;262.47;54.03;;;5.10;99.90;;;;;;6264282;23;20420;-78
2022/01/13 05:23:16;;;;;;;333.23;61.00;;;5.10;99.90;;;;;;6228053;23;20410;-80
2022/01/13 05:25:46;;;;;;;320.90;65.67;;;5.10;99.90;;;;;;6228839;23;20430;-79
2022/01/13 05:28:18;;;;;;;251.50;55.63;;;5.10;99.90;;;;;;6227598;23;20437;-79
2022/01/13 05:30:49;;;;;;;265.50;55.33;;;5.10;99.90;;;;;;6229568;23;20417;-79
2022/01/13 05:33:18;;;;;;;262.10;55.37;;;5.10;99.90;;;;;;6227354;23;20409;-79
2022/01/13 05:35:49;;;;;;;261.23;52.93;;;5.10;99.90;;;;;;6252140;22;20483;-79
2022/01/13 05:38:18;;;;;;;284.43;63.57;;;5.10;99.90;;;;;;6227463;23;20416;-79
2022/01/13 05:40:47;;;;;;;349.73;66.87;;;5.10;99.90;;;;;;6227642;23;20437;-79
2022/01/13 05:43:15;;;;;;;351.10;64.90;;;5.10;99.90;;;;;;6227414;23;20438;-79
2022/01/13 05:45:46;;;;;;;277.23;60.47;;;5.10;99.90;;;;;;6252793;23;20440;-79
2022/01/13 05:48:15;;;;;;;271.53;59.47;;;5.10;99.90;;;;;;6227419;23;20819;-79
2022/01/13 05:50:45;;;;;;;252.13;58.57;;;5.10;99.90;;;;;;6227644;23;20455;-79
2022/01/13 05:53:15;;;;;;;230.33;52.37;;;5.00;99.90;;;;;;6227404;23;20421;-79
2022/01/13 05:55:43;;;;;;;242.80;52.23;;;5.10;99.90;;;;;;6253568;22;20430;-80
2022/01/13 05:58:14;;;;;;;316.77;55.93;;;5.10;99.90;;;;;;6263886;23;20837;-79
2022/01/13 06:00:50;;;;;;;217.83;50.40;;;5.10;99.90;;;;;;6226998;23;20782;-79
2022/01/13 06:11:37;;;;;;;285.10;66.57;;;5.10;99.90;;;;;;5920643;23;20471;-79
2022/01/13 06:14:06;;;;;;;225.47;63.33;;;5.10;99.90;;;;;;6073755;23;20459;-79
2022/01/13 06:16:35;;;;;;;270.37;51.90;;;5.10;99.90;;;;;;6120329;23;20416;-79
2022/01/13 06:19:05;;;;;;;186.97;48.73;;;5.10;99.90;;;;;;6173542;23;20409;-78
2022/01/13 06:21:33;;;;;;;336.20;62.77;;;5.10;99.90;;;;;;6222402;23;20405;-78
2022/01/13 06:24:02;;;;;;;250.07;60.50;;;5.10;99.90;;;;;;6248906;22;20468;-79
2022/01/13 06:26:31;;;;;;;221.60;55.90;;;5.10;99.90;;;;;;6222682;23;20414;-79
2022/01/13 06:29:04;;;;;;;229.67;59.90;;;5.10;99.90;;;;;;6249248;23;20422;-78
2022/01/13 06:31:32;;;;;;;233.80;55.57;;;5.10;99.90;;;;;;6249062;23;20405;-78
2022/01/13 06:34:00;;;;;;;180.43;41.73;;;5.10;99.90;;;;;;6222784;22;20446;-78
2022/01/13 06:36:31;;;;;;;203.47;44.20;;;5.10;99.90;;;;;;6223272;23;20420;-78
2022/01/13 06:38:59;;;;;;;292.27;56.23;;;5.10;99.90;;;;;;6224363;23;20413;-78
2022/01/13 06:41:28;;;;;;;208.17;52.07;;;5.10;99.90;;;;;;6248592;22;20477;-78
2022/01/13 06:44:01;;;;;;;268.70;50.03;;;5.10;99.90;;;;;;6222965;22;20512;-78
2022/01/13 06:46:29;;;;;;;366.87;61.27;;;5.10;99.90;;;;;;6222553;23;20416;-79
2022/01/13 06:48:57;;;;;;;311.00;60.93;;;5.10;99.90;;;;;;6223495;23;20444;-78
2022/01/13 06:51:33;;;;;;;153.97;49.40;;;5.10;99.90;;;;;;6223837;23;20412;-78
2022/01/13 06:54:06;;;;;;;266.50;54.97;;;5.20;99.90;;;;;;6223835;23;20479;-78
2022/01/13 06:56:38;;;;;;;230.87;55.00;;;5.20;99.90;;;;;;6224330;23;20948;-78
2022/01/13 06:59:17;;;;;;;345.57;64.93;;;5.20;99.90;;;;;;6223372;23;20406;-79
2022/01/13 07:01:46;;;;;;;191.90;52.93;;;5.20;99.90;;;;;;6261300;23;20413;-78
2022/01/13 07:04:14;;;;;;;336.83;66.50;;;5.10;99.90;;;;;;6223529;23;20445;-78
2022/01/13 07:06:45;;;;;;;292.40;60.13;;;5.10;99.90;;;;;;6224873;23;20421;-78
2022/01/13 07:09:25;;;;;;;236.63;47.60;;;5.10;99.90;;;;;;6223749;23;20445;-78
2022/01/13 07:11:54;;;;;;;279.27;59.33;;;5.10;99.90;;;;;;6224051;23;20413;-78
2022/01/13 07:14:23;;;;;;;311.50;56.20;;;5.10;99.90;;;;;;6223844;23;20433;-78
2022/01/13 07:16:52;;;;;;;199.30;45.93;;;5.10;99.90;;;;;;6249454;23;20459;-79
2022/01/13 07:19:20;;;;;;;206.40;46.33;;;5.20;99.90;;;;;;6224218;23;20418;-79
2022/01/13 07:21:48;;;;;;;228.67;49.00;;;5.20;99.90;;;;;;6260965;23;20374;-78
2022/01/13 07:24:16;;;;;;;216.63;56.63;;;5.20;99.90;;;;;;6223443;23;20438;-78
2022/01/13 07:26:47;;;;;;;186.13;44.93;;;5.20;99.90;;;;;;6234800;23;20477;-78
2022/01/13 07:29:15;;;;;;;156.30;46.53;;;5.20;99.90;;;;;;6223448;23;20433;-78
2022/01/13 07:31:46;;;;;;;273.90;52.90;;;5.20;99.90;;;;;;6248904;22;20437;-79
2022/01/13 07:34:18;;;;;;;225.03;57.23;;;5.20;99.90;;;;;;6251035;22;20445;-78
2022/01/13 07:36:47;;;;;;;170.83;51.67;;;5.20;99.90;;;;;;6250457;23;20829;-78
2022/01/13 07:39:15;;;;;;;196.93;48.93;;;5.20;99.90;;;;;;6224832;23;20414;-78
2022/01/13 07:41:43;;;;;;;313.67;60.57;;;5.20;99.90;;;;;;6251859;23;20729;-78
2022/01/13 07:44:18;;;;;;;194.17;50.33;;;5.20;99.90;;;;;;6250093;23;20437;-78
2022/01/13 07:46:48;;;;;;;300.23;61.47;;;5.20;99.90;;;;;;6261945;23;20754;-78
2022/01/13 07:49:16;;;;;;;289.53;65.07;;;5.20;99.90;;;;;;6261224;23;20426;-78
2022/01/13 07:51:48;;;;;;;207.83;48.20;;;5.20;99.90;;;;;;6260851;23;20396;-78
2022/01/13 07:54:17;;;;;;;149.70;42.00;;;5.20;99.90;;;;;;6225049;23;20827;-78
2022/01/13 07:56:48;;;;;;;239.37;58.60;;;5.30;99.90;;;;;;6223610;23;20893;-78
2022/01/13 07:59:17;;;;;;;318.03;62.57;;;5.20;99.90;;;;;;6250574;23;20873;-78
2022/01/13 08:01:47;;;;;;;230.20;66.47;;;5.30;99.90;;;;;;6249148;22;20418;-78
2022/01/13 08:04:17;;;;;;;233.03;49.93;;;5.20;99.90;;;;;;6261441;22;20870;-78
2022/01/13 08:06:45;;;;;;;201.10;53.27;;;5.20;99.90;;;;;;6224139;23;20502;-78
2022/01/13 08:09:14;;;;;;;290.80;58.17;;;5.20;99.90;;;;;;6223740;23;20483;-79
2022/01/13 08:11:45;;;;;;;268.40;60.13;;;5.30;99.90;;;;;;6249494;23;20449;-79
2022/01/13 08:14:14;;;;;;;182.20;48.63;;;5.30;99.90;;;;;;6250520;23;20808;-78
2022/01/13 08:16:45;;;;;;;212.47;53.57;;;5.30;99.90;;;;;;6221373;23;20413;-78
2022/01/13 08:22:00;;;;;;;292.43;62.60;;;5.20;99.90;;;;;;6224039;23;20449;-78
2022/01/13 08:24:29;;;;;;;288.13;57.53;;;5.20;99.90;;;;;;6222855;23;20441;-78
2022/01/13 08:26:57;;;;;;;233.67;56.90;;;5.20;99.90;;;;;;6223443;23;20892;-78
2022/01/13 08:29:26;;;;;;;169.20;50.93;;;5.30;99.90;;;;;;6259798;23;20454;-78
2022/01/13 08:31:54;;;;;;;225.37;55.97;;;5.30;99.90;;;;;;6224566;23;20489;-78
2022/01/13 08:34:27;;;;;;;168.83;49.37;;;5.30;99.90;;;;;;6223099;23;20799;-78
2022/01/13 08:36:55;;;;;;;238.40;58.53;;;5.30;99.90;;;;;;6223278;23;20460;-78
2022/01/13 08:39:25;;;;;;;204.77;55.67;;;5.30;99.90;;;;;;6222643;23;20410;-78
2022/01/13 08:41:53;;;;;;;256.30;53.53;;;5.30;99.90;;;;;;6223449;23;20445;-78
2022/01/13 08:44:21;;;;;;;132.40;46.13;;;5.40;99.90;;;;;;6259548;22;20453;-78
2022/01/13 08:46:50;;;;;;;301.77;57.83;;;5.30;99.90;;;;;;6223046;23;20418;-78
2022/01/13 08:49:18;;;;;;;267.07;59.13;;;5.30;99.90;;;;;;6225092;23;20437;-79
2022/01/13 08:51:47;;;;;;;260.70;57.33;;;5.30;99.90;;;;;;6263426;23;20394;-79
2022/01/13 08:54:16;;;;;;;258.30;56.93;;;5.30;99.90;;;;;;6226735;23;20429;-79
2022/01/13 08:56:46;;;;;;;258.60;56.43;;;5.30;99.90;;;;;;6250184;23;20413;-78
2022/01/13 08:59:16;;;;;;;186.17;55.30;;;5.30;99.90;;;;;;6263505;23;20390;-78
2022/01/13 09:01:44;;;;;;;303.00;66.80;;;5.30;99.90;;;;;;6226502;23;20471;-78
2022/01/13 09:04:13;;;;;;;310.93;65.47;;;5.30;99.90;;;;;;6226265;23;20510;-78
2022/01/13 09:06:41;;;;;;;163.10;48.40;;;5.30;99.90;;;;;;6226198;23;20409;-78
2022/01/13 09:09:13;;;;;;;289.73;65.33;;;5.30;99.90;;;;;;6225798;23;20461;-78
2022/01/13 09:11:41;;;;;;;197.27;58.73;;;5.30;99.90;;;;;;6226766;23;20409;-79
2022/01/13 09:14:15;;;;;;;230.87;60.23;;;5.30;99.90;;;;;;6225189;23;20426;-81
2022/01/13 09:16:47;;;;;;;300.70;62.43;;;5.30;99.90;;;;;;6225256;23;20865;-78
2022/01/13 09:22:46;;;;;;;305.20;67.93;;;5.30;99.90;;;;;;6125052;23;20413;-78
2022/01/13 09:25:20;;;;;;;173.97;46.53;;;5.20;99.90;;;;;;6130428;23;20433;-78
2022/01/13 09:27:50;;;;;;;234.57;63.60;;;5.30;99.90;;;;;;6106379;23;20477;-79
2022/01/13 09:30:18;;;;;;;336.67;58.40;;;5.30;99.90;;;;;;6141165;23;20467;-78
2022/01/13 09:32:48;;;;;;;284.50;58.30;;;5.30;99.90;;;;;;6106559;23;20500;-78
2022/01/13 09:35:16;;;;;;;202.90;43.80;;;5.30;99.90;;;;;;6130353;23;20469;-79
2022/01/13 09:37:45;;;;;;;223.90;53.67;;;5.30;99.90;;;;;;6223061;23;20413;-78
2022/01/13 09:40:14;;;;;;;275.10;57.20;;;5.30;99.90;;;;;;6232420;23;20410;-78
2022/01/13 09:42:45;;;;;;;215.20;47.83;;;5.30;99.90;;;;;;6196062;23;20456;-78
2022/01/13 09:45:14;;;;;;;303.57;61.20;;;5.40;99.90;;;;;;6220856;23;20525;-78
2022/01/13 09:47:44;;;;;;;215.23;55.47;;;5.30;99.90;;;;;;6232674;23;20793;-78
2022/01/13 09:50:19;;;;;;;284.23;59.10;;;5.40;99.90;;;;;;6195345;23;20465;-78
2022/01/13 09:52:48;;;;;;;166.27;45.60;;;5.40;99.90;;;;;;6220558;23;20426;-79
2022/01/13 09:55:18;;;;;;;256.53;46.33;;;5.40;99.90;;;;;;6195221;23;20426;-78
2022/01/13 09:57:55;;;;;;;210.57;54.07;;;5.40;99.90;;;;;;6221375;23;20902;-79
2022/01/13 10:00:26;;;;;;;228.10;52.23;;;5.40;99.90;;;;;;6220202;23;20758;-79
2022/01/13 10:02:55;;;;;;;324.00;63.27;;;5.40;99.90;;;;;;6194650;23;20407;-79
2022/01/13 10:05:37;;;;;;;;;;;;;;;;;;;;;
2022/01/13 10:08:06;;;;;;;231.37;50.60;;;5.40;99.90;;;;;;6229965;23;20406;-79
2022/01/13 10:10:35;;;;;;;226.80;55.73;;;5.40;99.90;;;;;;6232598;23;20485;-79
2022/01/13 10:13:09;;;;;;;179.60;48.57;;;5.40;99.90;;;;;;6221098;23;20442;-78
2022/01/13 10:18:42;;;;;;;203.87;46.43;;;5.40;99.90;;;;;;6233665;23;20448;-79
2022/01/13 10:21:14;;;;;;;205.67;54.87;;;5.40;99.90;;;;;;6223822;23;20422;-79
2022/01/13 10:24:03;;;;;;;137.37;44.40;;;5.50;99.90;;;;;;6226066;22;20909;-79
2022/01/13 10:26:34;;;;;;;195.50;43.23;;;5.50;99.90;;;;;;6226054;23;20410;-81
2022/01/13 10:29:07;;;;;;;217.17;56.53;;;5.40;99.90;;;;;;6251572;23;20409;-79
2022/01/13 10:31:46;;;;;;;307.70;62.37;;;5.50;99.90;;;;;;6252895;23;20421;-79
2022/01/13 10:34:33;;;;;;;211.27;49.87;;;5.50;99.90;;;;;;6225954;23;20433;-79
2022/01/13 10:37:11;;;;;;;263.70;58.03;;;5.50;99.90;;;;;;6250799;23;20402;-79
2022/01/13 10:39:56;;;;;;;138.13;40.60;;;5.50;99.90;;;;;;6225758;23;20939;-78
2022/01/13 10:45:34;;;;;;;275.90;53.67;;;5.50;99.90;;;;;;6225714;23;20520;-78
2022/01/13 10:48:06;;;;;;;154.23;43.93;;;5.50;99.90;;;;;;6262066;23;20386;-79
2022/01/13 10:50:40;;;;;;;243.53;50.57;;;5.50;99.90;;;;;;6224555;23;20904;-79
2022/01/13 10:53:25;;;;;;;250.10;47.27;;;5.50;99.90;;;;;;6225501;23;20498;-78
2022/01/13 10:55:58;;;;;;;134.70;40.93;;;5.50;99.90;;;;;;6252175;22;20439;-79
2022/01/13 10:58:30;;;;;;;202.83;47.63;;;5.50;99.90;;;;;;6224689;23;20417;-78
2022/01/13 11:01:01;;;;;;;254.03;58.87;;;5.60;99.90;;;;;;6250613;23;20402;-79
2022/01/13 11:03:31;;;;;;;309.37;54.80;;;5.60;99.90;;;;;;6252748;23;20385;-78
2022/01/13 11:06:03;;;;;;;198.90;54.10;;;5.60;99.90;;;;;;6225126;23;20464;-78
2022/01/13 11:08:38;;;;;;;211.37;51.67;;;5.60;99.90;;;;;;6226009;23;20436;-78
2022/01/13 11:11:19;;;;;;;265.77;55.57;;;5.60;99.90;;;;;;6224958;23;20425;-78
2022/01/13 11:13:52;;;;;;;259.33;58.27;;;5.70;99.90;;;;;;6225438;22;20492;-79
2022/01/13 11:16:23;;;;;;;222.93;50.20;;;5.60;99.90;;;;;;6225146;23;20414;-79
2022/01/13 11:18:51;;;;;;;285.37;54.97;;;5.60;99.90;;;;;;6225286;23;20417;-79
2022/01/13 11:21:27;;;;;;;168.77;47.13;;;5.60;99.90;;;;;;6226046;23;20421;-78
2022/01/13 11:24:01;;;;;;;230.70;51.97;;;5.60;99.90;;;;;;6224291;22;20461;-78
2022/01/13 11:26:30;;;;;;;177.87;53.67;;;5.70;99.90;;;;;;6262575;23;20374;-78
2022/01/13 11:29:00;;;;;;;257.53;49.00;;;5.60;99.90;;;;;;6226277;23;20418;-78
2022/01/13 11:31:30;;;;;;;138.20;41.20;;;5.70;99.90;;;;;;6224334;23;20434;-78
2022/01/13 11:34:00;;;;;;;262.03;50.80;;;5.70;99.90;;;;;;6261395;22;20869;-78
2022/01/13 11:36:29;;;;;;;193.13;42.03;;;5.70;99.90;;;;;;6224456;23;20406;-79
2022/01/13 11:39:02;;;;;;;122.03;45.63;;;5.70;99.90;;;;;;6249769;23;20445;-78
2022/01/13 11:41:32;;;;;;;85.13;35.37;;;5.70;99.90;;;;;;6250917;23;20886;-78
2022/01/13 11:44:17;;;;;;;211.67;51.43;;;5.70;99.90;;;;;;6251951;22;20971;-78
2022/01/13 11:47:08;;;;;;;203.77;63.10;;;5.70;99.90;;;;;;6225125;23;20455;-79
2022/01/13 11:49:43;;;;;;;177.27;47.33;;;5.80;99.90;;;;;;6225018;23;20413;-78
2022/01/13 11:52:27;;;;;;;187.00;53.30;;;5.70;99.90;;;;;;6249986;23;20823;-79
2022/01/13 11:54:56;;;;;;;314.73;52.73;;;5.70;99.90;;;;;;6223709;23;20454;-78
2022/01/13 11:57:47;;;;;;;204.40;49.93;;;5.80;99.90;;;;;;6223407;23;20410;-79
2022/01/13 12:00:25;;;;;;;208.13;52.00;;;5.80;99.90;;;;;;6249821;23;20414;-79
2022/01/13 12:02:55;;;;;;;280.23;56.07;;;5.80;99.90;;;;;;6261664;23;20414;-79
2022/01/13 12:05:30;;;;;;;272.47;52.53;;;5.80;99.90;;;;;;6249242;23;20444;-78
2022/01/13 12:08:01;;;;;;;148.67;47.40;;;5.80;99.90;;;;;;6249949;23;20492;-78
2022/01/13 12:10:49;;;;;;;220.00;51.03;;;5.80;99.90;;;;;;6224203;23;20496;-79
2022/01/13 12:13:39;;;;;;;242.20;60.30;;;5.80;99.90;;;;;;6262486;23;20465;-78
2022/01/13 12:16:09;;;;;;;241.77;63.60;;;5.80;99.90;;;;;;6261604;23;20429;-78
2022/01/13 12:22:01;;;;;;;213.13;58.00;;;5.80;99.90;;;;;;6197648;23;20742;-78
2022/01/13 12:25:10;;;;;;;313.47;69.27;;;5.80;99.90;;;;;;6195929;23;20444;-78
2022/01/13 12:27:47;;;;;;;303.80;68.33;;;5.80;99.90;;;;;;6196782;23;20410;-78
2022/01/13 12:30:17;;;;;;;252.90;67.33;;;5.80;99.90;;;;;;6222958;23;20401;-78
2022/01/13 12:32:48;;;;;;;244.87;57.43;;;5.80;99.90;;;;;;6222046;23;20446;-78
2022/01/13 12:35:31;;;;;;;215.57;46.50;;;5.90;99.90;;;;;;6196951;23;20465;-78
2022/01/13 12:38:03;;;;;;;212.23;61.07;;;5.90;99.90;;;;;;6196692;23;20415;-78
2022/01/13 12:40:40;;;;;;;169.20;47.83;;;5.90;99.90;;;;;;6233155;23;20700;-79
2022/01/13 12:43:35;;;;;;;284.10;63.10;;;5.90;99.90;;;;;;6196287;23;20414;-79
2022/01/13 12:46:05;;;;;;;281.10;58.53;;;5.90;99.90;;;;;;6233468;23;20445;-79
2022/01/13 12:48:37;;;;;;;222.13;53.70;;;5.90;99.90;;;;;;6223241;23;20397;-78
2022/01/13 12:51:07;;;;;;;156.43;43.43;;;5.90;99.90;;;;;;6222932;23;20441;-78
2022/01/13 12:53:37;;;;;;;198.70;44.80;;;5.90;99.90;;;;;;6223746;23;20415;-80
2022/01/13 12:56:10;;;;;;;268.03;57.37;;;5.90;99.90;;;;;;6199293;23;20407;-79
2022/01/13 12:58:42;;;;;;;192.83;50.43;;;5.90;99.90;;;;;;6221293;23;20433;-79
2022/01/13 13:01:12;;;;;;;230.13;55.10;;;5.90;99.90;;;;;;6225094;23;20390;-79
2022/01/13 13:03:42;;;;;;;184.27;49.50;;;5.90;99.90;;;;;;6225569;23;20394;-80
2022/01/13 13:06:17;;;;;;;180.03;37.77;;;5.90;99.90;;;;;;6226252;23;20395;-79
2022/01/13 13:08:47;;;;;;;238.43;50.17;;;5.90;99.90;;;;;;6198312;23;20399;-80
2022/01/13 13:11:16;;;;;;;90.43;33.47;;;5.90;99.90;;;;;;6199884;23;20431;-80
2022/01/13 13:13:52;;;;;;;180.13;49.67;;;5.90;99.90;;;;;;6236502;23;20389;-79
2022/01/13 13:16:23;;;;;;;301.43;54.97;;;5.90;99.90;;;;;;6199102;23;20409;-80
2022/01/13 13:18:59;;;;;;;188.10;43.20;;;6.00;99.90;;;;;;6199134;23;20414;-79
2022/01/13 13:21:29;;;;;;;261.43;50.53;;;5.90;99.90;;;;;;6225132;23;20434;-80
2022/01/13 13:23:59;;;;;;;183.37;48.83;;;5.90;99.90;;;;;;6223137;23;20738;-79
2022/01/13 13:26:27;;;;;;;153.30;44.43;;;6.00;99.90;;;;;;6223507;23;20414;-79
2022/01/13 13:28:58;;;;;;;143.37;38.63;;;5.90;99.90;;;;;;6198407;23;20452;-80
2022/01/13 13:31:35;;;;;;;168.27;35.57;;;5.90;99.90;;;;;;6222997;23;20518;-79
2022/01/13 13:34:06;;;;;;;252.67;55.50;;;5.90;99.90;;;;;;6199117;23;20426;-79
2022/01/13 13:44:30;;;;;;;178.93;45.20;;;6.00;99.90;;;;;;5925929;24;20526;-79
2022/01/13 13:47:01;;;;;;;238.77;52.00;;;6.00;99.90;;;;;;6040377;23;20427;-79
2022/01/13 13:49:41;;;;;;;227.40;49.33;;;6.00;99.90;;;;;;6224246;23;20418;-79
2022/01/13 13:52:16;;;;;;;198.37;41.57;;;6.00;99.90;;;;;;6226506;23;20423;-79
2022/01/13 13:54:52;;;;;;;187.80;41.13;;;6.00;99.90;;;;;;6197623;23;20926;-79
2022/01/13 13:57:23;;;;;;;279.43;48.93;;;6.00;99.90;;;;;;6198483;23;20414;-79
2022/01/13 13:59:56;;;;;;;191.87;45.07;;;6.00;99.90;;;;;;6235576;23;20401;-79
2022/01/13 14:02:32;;;;;;;172.57;48.43;;;6.00;99.90;;;;;;6199041;23;20410;-79
2022/01/13 14:05:08;;;;;;;184.03;43.67;;;6.00;99.90;;;;;;6235343;23;20407;-79
2022/01/13 14:07:41;;;;;;;112.93;37.53;;;6.00;99.90;;;;;;6235977;23;20466;-79
2022/01/13 14:10:15;;;;;;;359.17;62.43;;;6.00;99.90;;;;;;6222886;23;20876;-80
2022/01/13 14:12:46;;;;;;;198.77;42.47;;;6.00;99.90;;;;;;6234874;23;20429;-79